sensor_id;sensor_type;location;lat;lon;timestamp;temperature;humidity
21092;DHT22;10704;42.678;23.288;2023-04-16T00:00:25;11.60;99.90
21092;DHT22;10704;42.678;23.288;2023-04-16T00:02:51;11.60;99.90
21092;DHT22;10704;42.678;23.288;2023-04-16T00:05:17;11.40;99.90
21092;DHT22;10704;42.678;23.288;2023-04-16T00:07:42;11.20;99.90
21092;DHT22;10704;42.678;23.288;2023-04-16T00:10:08;10.90;99.90
21092;DHT22;10704;42.678;23.288;2023-04-16T00:12:34;10.70;99.90
21092;DHT22;10704;42.678;23.288;2023-04-16T00:15:01;10.50;99.90
21092;DHT22;10704;42.678;23.288;2023-04-16T00:17:26;10.50;99.90
21092;DHT22;10704;42.678;23.288;2023-04-16T00:19:52;10.30;99.90
21092;DHT22;10704;42.678;23.288;2023-04-16T00:22:18;10.30;99.90
21092;DHT22;10704;42.678;23.288;2023-04-16T00:24:44;10.20;99.90
21092;DHT22;10704;42.678;23.288;2023-04-16T00:27:10;10.10;99.90
21092;DHT22;10704;42.678;23.288;2023-04-16T00:29:36;10.00;99.90
21092;DHT22;10704;42.678;23.288;2023-04-16T00:32:01;9.90;99.90
21092;DHT22;10704;42.678;23.288;2023-04-16T00:34:28;9.90;99.90
21092;DHT22;10704;42.678;23.288;2023-04-16T00:36:53;9.90;99.90
21092;DHT22;10704;42.678;23.288;2023-04-16T00:39:19;9.90;99.90
21092;DHT22;10704;42.678;23.288;2023-04-16T00:41:45;9.90;99.90
21092;DHT22;10704;42.678;23.288;2023-04-16T00:44:11;9.80;99.90
21092;DHT22;10704;42.678;23.288;2023-04-16T00:46:37;9.80;99.90
21092;DHT22;10704;42.678;23.288;2023-04-16T00:49:03;9.70;99.90
21092;DHT22;10704;42.678;23.288;2023-04-16T00:51:29;9.70;99.90
21092;DHT22;10704;42.678;23.288;2023-04-16T00:53:56;9.60;99.90
21092;DHT22;10704;42.678;23.288;2023-04-16T00:56:23;9.60;99.90
21092;DHT22;10704;42.678;23.288;2023-04-16T00:58:49;9.60;99.90
21092;DHT22;10704;42.678;23.288;2023-04-16T01:01:15;9.60;99.90
21092;DHT22;10704;42.678;23.288;2023-04-16T01:03:46;9.60;99.90
21092;DHT22;10704;42.678;23.288;2023-04-16T01:06:13;9.60;99.90
21092;DHT22;10704;42.678;23.288;2023-04-16T01:08:39;9.60;99.90
21092;DHT22;10704;42.678;23.288;2023-04-16T01:11:05;9.60;99.90
21092;DHT22;10704;42.678;23.288;2023-04-16T01:13:31;9.50;99.90
21092;DHT22;10704;42.678;23.288;2023-04-16T01:15:58;9.50;99.90
21092;DHT22;10704;42.678;23.288;2023-04-16T01:18:25;9.70;99.90
21092;DHT22;10704;42.678;23.288;2023-04-16T01:20:51;9.70;99.90
21092;DHT22;10704;42.678;23.288;2023-04-16T01:23:18;9.70;99.90
21092;DHT22;10704;42.678;23.288;2023-04-16T01:25:46;9.70;99.90
21092;DHT22;10704;42.678;23.288;2023-04-16T01:28:12;9.50;99.90
21092;DHT22;10704;42.678;23.288;2023-04-16T01:30:38;9.50;99.90
21092;DHT22;10704;42.678;23.288;2023-04-16T01:33:33;9.40;99.90
21092;DHT22;10704;42.678;23.288;2023-04-16T01:35:59;9.60;99.90
21092;DHT22;10704;42.678;23.288;2023-04-16T01:38:25;9.70;99.90
21092;DHT22;10704;42.678;23.288;2023-04-16T01:40:55;9.80;99.90
21092;DHT22;10704;42.678;23.288;2023-04-16T01:43:22;9.80;99.90
21092;DHT22;10704;42.678;23.288;2023-04-16T01:45:48;9.80;99.90
21092;DHT22;10704;42.678;23.288;2023-04-16T01:48:13;9.80;99.90
21092;DHT22;10704;42.678;23.288;2023-04-16T01:50:40;9.70;99.90
21092;DHT22;10704;42.678;23.288;2023-04-16T01:53:06;9.60;99.90
21092;DHT22;10704;42.678;23.288;2023-04-16T01:55:32;9.50;99.90
21092;DHT22;10704;42.678;23.288;2023-04-16T01:57:58;9.40;99.90
21092;DHT22;10704;42.678;23.288;2023-04-16T02:00:27;9.40;99.90
21092;DHT22;10704;42.678;23.288;2023-04-16T02:02:53;9.40;99.90
21092;DHT22;10704;42.678;23.288;2023-04-16T02:05:25;9.30;99.90
21092;DHT22;10704;42.678;23.288;2023-04-16T02:07:51;9.30;99.90
21092;DHT22;10704;42.678;23.288;2023-04-16T02:10:17;9.30;99.90
21092;DHT22;10704;42.678;23.288;2023-04-16T02:12:43;9.30;99.90
21092;DHT22;10704;42.678;23.288;2023-04-16T02:15:09;9.30;99.90
21092;DHT22;10704;42.678;23.288;2023-04-16T02:17:35;9.30;99.90
21092;DHT22;10704;42.678;23.288;2023-04-16T02:20:08;9.40;99.90
21092;DHT22;10704;42.678;23.288;2023-04-16T02:22:41;9.60;99.90
21092;DHT22;10704;42.678;23.288;2023-04-16T02:25:10;9.60;99.90
21092;DHT22;10704;42.678;23.288;2023-04-16T02:27:36;9.60;99.90
21092;DHT22;10704;42.678;23.288;2023-04-16T02:30:19;9.60;99.90
21092;DHT22;10704;42.678;23.288;2023-04-16T02:32:45;9.60;99.90
21092;DHT22;10704;42.678;23.288;2023-04-16T02:35:12;9.70;99.90
21092;DHT22;10704;42.678;23.288;2023-04-16T02:37:37;9.70;99.90
21092;DHT22;10704;42.678;23.288;2023-04-16T02:40:06;9.80;99.90
21092;DHT22;10704;42.678;23.288;2023-04-16T02:42:32;9.80;99.90
21092;DHT22;10704;42.678;23.288;2023-04-16T02:44:57;9.80;99.90
21092;DHT22;10704;42.678;23.288;2023-04-16T02:47:23;9.80;99.90
21092;DHT22;10704;42.678;23.288;2023-04-16T02:49:49;9.70;99.90
21092;DHT22;10704;42.678;23.288;2023-04-16T02:52:15;9.60;99.90
21092;DHT22;10704;42.678;23.288;2023-04-16T02:54:41;9.60;99.90
21092;DHT22;10704;42.678;23.288;2023-04-16T02:57:07;9.60;99.90
21092;DHT22;10704;42.678;23.288;2023-04-16T02:59:33;9.60;99.90
21092;DHT22;10704;42.678;23.288;2023-04-16T03:01:59;9.70;99.90
21092;DHT22;10704;42.678;23.288;2023-04-16T03:04:25;9.70;99.90
21092;DHT22;10704;42.678;23.288;2023-04-16T03:06:51;9.70;99.90
21092;DHT22;10704;42.678;23.288;2023-04-16T03:09:16;9.70;99.90
21092;DHT22;10704;42.678;23.288;2023-04-16T03:11:43;9.70;99.90
21092;DHT22;10704;42.678;23.288;2023-04-16T03:14:09;9.50;99.90
21092;DHT22;10704;42.678;23.288;2023-04-16T03:16:35;9.40;99.90
21092;DHT22;10704;42.678;23.288;2023-04-16T03:19:01;9.30;99.90
21092;DHT22;10704;42.678;23.288;2023-04-16T03:21:26;9.10;99.90
21092;DHT22;10704;42.678;23.288;2023-04-16T03:23:52;9.10;99.90
21092;DHT22;10704;42.678;23.288;2023-04-16T03:26:21;9.20;99.90
21092;DHT22;10704;42.678;23.288;2023-04-16T03:28:48;9.10;99.90
21092;DHT22;10704;42.678;23.288;2023-04-16T03:31:14;9.10;99.90
21092;DHT22;10704;42.678;23.288;2023-04-16T03:33:40;9.10;99.90
21092;DHT22;10704;42.678;23.288;2023-04-16T03:36:07;9.00;99.90
21092;DHT22;10704;42.678;23.288;2023-04-16T03:38:33;9.00;99.90
21092;DHT22;10704;42.678;23.288;2023-04-16T03:40:59;9.00;99.90
21092;DHT22;10704;42.678;23.288;2023-04-16T03:43:26;8.90;99.90
21092;DHT22;10704;42.678;23.288;2023-04-16T03:45:51;8.90;99.90
21092;DHT22;10704;42.678;23.288;2023-04-16T03:48:21;8.90;99.90
21092;DHT22;10704;42.678;23.288;2023-04-16T03:50:47;8.90;99.90
21092;DHT22;10704;42.678;23.288;2023-04-16T03:53:15;8.90;99.90
21092;DHT22;10704;42.678;23.288;2023-04-16T03:55:41;8.90;99.90
21092;DHT22;10704;42.678;23.288;2023-04-16T03:58:08;8.90;99.90
21092;DHT22;10704;42.678;23.288;2023-04-16T04:00:34;8.90;99.90
21092;DHT22;10704;42.678;23.288;2023-04-16T04:03:09;8.90;99.90
21092;DHT22;10704;42.678;23.288;2023-04-16T04:05:39;8.90;99.90
21092;DHT22;10704;42.678;23.288;2023-04-16T04:08:08;8.90;99.90
21092;DHT22;10704;42.678;23.288;2023-04-16T04:10:35;9.00;99.90
21092;DHT22;10704;42.678;23.288;2023-04-16T04:13:03;9.00;99.90
21092;DHT22;10704;42.678;23.288;2023-04-16T04:15:30;9.10;99.90
21092;DHT22;10704;42.678;23.288;2023-04-16T04:17:57;9.20;99.90
21092;DHT22;10704;42.678;23.288;2023-04-16T04:20:23;9.30;99.90
21092;DHT22;10704;42.678;23.288;2023-04-16T04:22:51;9.40;99.90
21092;DHT22;10704;42.678;23.288;2023-04-16T04:25:19;9.50;99.90
21092;DHT22;10704;42.678;23.288;2023-04-16T04:27:45;9.40;99.90
21092;DHT22;10704;42.678;23.288;2023-04-16T04:30:11;9.50;99.90
21092;DHT22;10704;42.678;23.288;2023-04-16T04:32:39;9.50;99.90
21092;DHT22;10704;42.678;23.288;2023-04-16T04:35:05;9.60;99.90
21092;DHT22;10704;42.678;23.288;2023-04-16T04:37:31;9.70;99.90
21092;DHT22;10704;42.678;23.288;2023-04-16T04:39:57;9.70;99.90
21092;DHT22;10704;42.678;23.288;2023-04-16T04:42:23;9.70;99.90
21092;DHT22;10704;42.678;23.288;2023-04-16T04:44:50;9.70;99.90
21092;DHT22;10704;42.678;23.288;2023-04-16T04:47:16;9.70;99.90
21092;DHT22;10704;42.678;23.288;2023-04-16T04:49:42;9.80;99.90
21092;DHT22;10704;42.678;23.288;2023-04-16T04:52:08;9.80;99.90
21092;DHT22;10704;42.678;23.288;2023-04-16T04:54:34;9.90;99.90
21092;DHT22;10704;42.678;23.288;2023-04-16T04:57:00;10.00;99.90
21092;DHT22;10704;42.678;23.288;2023-04-16T04:59:27;10.10;99.90
21092;DHT22;10704;42.678;23.288;2023-04-16T05:01:54;10.20;99.90
21092;DHT22;10704;42.678;23.288;2023-04-16T05:04:19;10.10;99.90
21092;DHT22;10704;42.678;23.288;2023-04-16T05:06:45;10.20;99.90
21092;DHT22;10704;42.678;23.288;2023-04-16T05:09:11;10.20;99.90
21092;DHT22;10704;42.678;23.288;2023-04-16T05:11:37;10.20;99.90
21092;DHT22;10704;42.678;23.288;2023-04-16T05:14:04;10.20;99.90
21092;DHT22;10704;42.678;23.288;2023-04-16T05:16:29;10.30;99.90
21092;DHT22;10704;42.678;23.288;2023-04-16T05:18:55;10.30;99.90
21092;DHT22;10704;42.678;23.288;2023-04-16T05:21:22;10.30;99.90
21092;DHT22;10704;42.678;23.288;2023-04-16T05:23:48;10.30;99.90
21092;DHT22;10704;42.678;23.288;2023-04-16T05:26:14;10.30;99.90
21092;DHT22;10704;42.678;23.288;2023-04-16T05:28:40;10.40;99.90
21092;DHT22;10704;42.678;23.288;2023-04-16T05:31:06;10.50;99.90
21092;DHT22;10704;42.678;23.288;2023-04-16T05:33:32;10.50;99.90
21092;DHT22;10704;42.678;23.288;2023-04-16T05:35:57;10.60;99.90
21092;DHT22;10704;42.678;23.288;2023-04-16T05:38:23;10.70;99.90
21092;DHT22;10704;42.678;23.288;2023-04-16T05:40:49;10.70;99.90
21092;DHT22;10704;42.678;23.288;2023-04-16T05:43:15;10.90;99.90
21092;DHT22;10704;42.678;23.288;2023-04-16T05:45:41;10.90;99.90
21092;DHT22;10704;42.678;23.288;2023-04-16T05:48:07;11.00;99.90
21092;DHT22;10704;42.678;23.288;2023-04-16T05:50:34;11.10;99.90
21092;DHT22;10704;42.678;23.288;2023-04-16T05:53:01;11.10;99.90
21092;DHT22;10704;42.678;23.288;2023-04-16T05:55:27;11.20;99.90
21092;DHT22;10704;42.678;23.288;2023-04-16T05:57:53;11.30;99.90
21092;DHT22;10704;42.678;23.288;2023-04-16T06:00:19;11.40;99.90
21092;DHT22;10704;42.678;23.288;2023-04-16T06:02:45;11.30;99.90
21092;DHT22;10704;42.678;23.288;2023-04-16T06:05:11;11.20;99.90
21092;DHT22;10704;42.678;23.288;2023-04-16T06:07:37;11.30;99.90
21092;DHT22;10704;42.678;23.288;2023-04-16T06:10:03;11.30;99.90
21092;DHT22;10704;42.678;23.288;2023-04-16T06:12:29;11.30;99.90
21092;DHT22;10704;42.678;23.288;2023-04-16T06:14:55;11.40;99.90
21092;DHT22;10704;42.678;23.288;2023-04-16T06:17:21;11.50;99.90
21092;DHT22;10704;42.678;23.288;2023-04-16T06:19:47;11.70;99.90
21092;DHT22;10704;42.678;23.288;2023-04-16T06:22:13;11.90;99.90
21092;DHT22;10704;42.678;23.288;2023-04-16T06:24:39;12.00;99.90
21092;DHT22;10704;42.678;23.288;2023-04-16T06:27:05;12.30;99.90
21092;DHT22;10704;42.678;23.288;2023-04-16T06:29:31;12.30;99.90
21092;DHT22;10704;42.678;23.288;2023-04-16T06:31:57;12.40;99.90
21092;DHT22;10704;42.678;23.288;2023-04-16T06:34:22;12.30;99.90
21092;DHT22;10704;42.678;23.288;2023-04-16T06:36:48;12.30;99.90
21092;DHT22;10704;42.678;23.288;2023-04-16T06:39:14;12.50;99.90
21092;DHT22;10704;42.678;23.288;2023-04-16T06:41:41;12.50;99.90
21092;DHT22;10704;42.678;23.288;2023-04-16T06:44:07;12.70;99.90
21092;DHT22;10704;42.678;23.288;2023-04-16T06:46:33;12.80;99.90
21092;DHT22;10704;42.678;23.288;2023-04-16T06:49:01;12.90;99.90
21092;DHT22;10704;42.678;23.288;2023-04-16T06:51:27;12.90;99.90
21092;DHT22;10704;42.678;23.288;2023-04-16T06:53:52;13.00;99.90
21092;DHT22;10704;42.678;23.288;2023-04-16T06:56:18;13.00;99.90
21092;DHT22;10704;42.678;23.288;2023-04-16T06:58:44;13.20;99.90
21092;DHT22;10704;42.678;23.288;2023-04-16T07:01:10;13.40;99.90
21092;DHT22;10704;42.678;23.288;2023-04-16T07:03:36;13.50;99.90
21092;DHT22;10704;42.678;23.288;2023-04-16T07:06:02;13.50;99.90
21092;DHT22;10704;42.678;23.288;2023-04-16T07:08:28;13.50;99.90
21092;DHT22;10704;42.678;23.288;2023-04-16T07:10:54;13.50;99.90
21092;DHT22;10704;42.678;23.288;2023-04-16T07:13:20;13.60;99.90
21092;DHT22;10704;42.678;23.288;2023-04-16T07:15:46;13.50;99.90
21092;DHT22;10704;42.678;23.288;2023-04-16T07:18:12;13.60;99.90
21092;DHT22;10704;42.678;23.288;2023-04-16T07:20:38;13.60;99.90
21092;DHT22;10704;42.678;23.288;2023-04-16T07:23:04;13.80;99.90
21092;DHT22;10704;42.678;23.288;2023-04-16T07:25:30;13.70;99.90
21092;DHT22;10704;42.678;23.288;2023-04-16T07:27:56;13.80;99.90
21092;DHT22;10704;42.678;23.288;2023-04-16T07:30:22;13.90;99.90
21092;DHT22;10704;42.678;23.288;2023-04-16T07:32:47;13.90;99.70
21092;DHT22;10704;42.678;23.288;2023-04-16T07:35:13;13.80;99.90
21092;DHT22;10704;42.678;23.288;2023-04-16T07:37:39;14.00;99.90
21092;DHT22;10704;42.678;23.288;2023-04-16T07:40:06;13.90;99.00
21092;DHT22;10704;42.678;23.288;2023-04-16T07:42:32;13.90;99.90
21092;DHT22;10704;42.678;23.288;2023-04-16T07:44:58;14.30;98.80
21092;DHT22;10704;42.678;23.288;2023-04-16T07:47:24;14.40;97.30
21092;DHT22;10704;42.678;23.288;2023-04-16T07:49:51;14.50;97.00
21092;DHT22;10704;42.678;23.288;2023-04-16T07:52:18;14.50;96.60
21092;DHT22;10704;42.678;23.288;2023-04-16T07:54:44;14.70;95.50
21092;DHT22;10704;42.678;23.288;2023-04-16T07:57:10;14.80;95.10
21092;DHT22;10704;42.678;23.288;2023-04-16T07:59:37;14.50;95.10
21092;DHT22;10704;42.678;23.288;2023-04-16T08:02:03;14.40;96.40
21092;DHT22;10704;42.678;23.288;2023-04-16T08:04:29;14.90;95.50
21092;DHT22;10704;42.678;23.288;2023-04-16T08:06:55;15.10;94.80
21092;DHT22;10704;42.678;23.288;2023-04-16T08:09:24;15.60;93.90
21092;DHT22;10704;42.678;23.288;2023-04-16T08:11:51;16.20;92.20
21092;DHT22;10704;42.678;23.288;2023-04-16T08:14:17;16.80;90.40
21092;DHT22;10704;42.678;23.288;2023-04-16T08:16:42;17.10;87.20
21092;DHT22;10704;42.678;23.288;2023-04-16T08:19:08;17.40;84.60
21092;DHT22;10704;42.678;23.288;2023-04-16T08:21:34;17.50;84.70
21092;DHT22;10704;42.678;23.288;2023-04-16T08:24:00;17.90;82.70
21092;DHT22;10704;42.678;23.288;2023-04-16T08:26:26;18.40;79.10
21092;DHT22;10704;42.678;23.288;2023-04-16T08:28:52;18.20;78.80
21092;DHT22;10704;42.678;23.288;2023-04-16T08:31:18;17.70;79.60
21092;DHT22;10704;42.678;23.288;2023-04-16T08:33:43;17.10;81.80
21092;DHT22;10704;42.678;23.288;2023-04-16T08:36:09;16.80;83.30
21092;DHT22;10704;42.678;23.288;2023-04-16T08:38:35;17.10;82.60
21092;DHT22;10704;42.678;23.288;2023-04-16T08:41:04;16.80;82.80
21092;DHT22;10704;42.678;23.288;2023-04-16T08:43:37;16.70;84.00
21092;DHT22;10704;42.678;23.288;2023-04-16T08:46:07;17.10;83.30
21092;DHT22;10704;42.678;23.288;2023-04-16T08:48:34;17.00;82.20
21092;DHT22;10704;42.678;23.288;2023-04-16T08:51:01;17.10;80.60
21092;DHT22;10704;42.678;23.288;2023-04-16T08:53:53;17.20;80.60
21092;DHT22;10704;42.678;23.288;2023-04-16T08:56:23;17.80;79.10
21092;DHT22;10704;42.678;23.288;2023-04-16T08:58:50;18.60;75.80
21092;DHT22;10704;42.678;23.288;2023-04-16T09:01:18;18.70;74.80
21092;DHT22;10704;42.678;23.288;2023-04-16T09:03:48;18.50;72.30
21092;DHT22;10704;42.678;23.288;2023-04-16T09:06:15;18.00;73.90
21092;DHT22;10704;42.678;23.288;2023-04-16T09:08:43;17.50;75.80
21092;DHT22;10704;42.678;23.288;2023-04-16T09:11:13;17.50;76.40
21092;DHT22;10704;42.678;23.288;2023-04-16T09:13:42;17.60;75.90
21092;DHT22;10704;42.678;23.288;2023-04-16T09:16:08;17.50;76.10
21092;DHT22;10704;42.678;23.288;2023-04-16T09:18:35;17.50;77.00
21092;DHT22;10704;42.678;23.288;2023-04-16T09:21:01;17.80;76.80
21092;DHT22;10704;42.678;23.288;2023-04-16T09:23:28;18.10;75.80
21092;DHT22;10704;42.678;23.288;2023-04-16T09:25:55;18.70;74.10
21092;DHT22;10704;42.678;23.288;2023-04-16T09:28:41;19.10;72.00
21092;DHT22;10704;42.678;23.288;2023-04-16T09:31:14;18.80;72.60
21092;DHT22;10704;42.678;23.288;2023-04-16T09:33:41;19.00;71.20
21092;DHT22;10704;42.678;23.288;2023-04-16T09:36:10;18.80;70.90
21092;DHT22;10704;42.678;23.288;2023-04-16T09:41:12;20.00;68.50
21092;DHT22;10704;42.678;23.288;2023-04-16T09:43:41;20.70;64.60
21092;DHT22;10704;42.678;23.288;2023-04-16T09:46:13;21.30;63.60
21092;DHT22;10704;42.678;23.288;2023-04-16T09:48:39;22.30;61.00
21092;DHT22;10704;42.678;23.288;2023-04-16T09:51:05;23.10;58.20
21092;DHT22;10704;42.678;23.288;2023-04-16T09:53:32;23.00;58.00
21092;DHT22;10704;42.678;23.288;2023-04-16T09:55:58;22.60;56.80
21092;DHT22;10704;42.678;23.288;2023-04-16T09:58:25;22.60;56.60
21092;DHT22;10704;42.678;23.288;2023-04-16T10:00:55;22.00;56.80
21092;DHT22;10704;42.678;23.288;2023-04-16T10:03:32;21.70;57.90
21092;DHT22;10704;42.678;23.288;2023-04-16T10:06:16;21.10;58.90
21092;DHT22;10704;42.678;23.288;2023-04-16T10:08:49;20.00;61.10
21092;DHT22;10704;42.678;23.288;2023-04-16T10:11:16;19.50;62.00
21092;DHT22;10704;42.678;23.288;2023-04-16T10:13:43;19.30;63.00
21092;DHT22;10704;42.678;23.288;2023-04-16T10:16:09;19.20;63.70
21092;DHT22;10704;42.678;23.288;2023-04-16T10:18:39;19.10;63.40
21092;DHT22;10704;42.678;23.288;2023-04-16T10:21:06;19.00;63.70
21092;DHT22;10704;42.678;23.288;2023-04-16T10:23:33;19.10;64.70
21092;DHT22;10704;42.678;23.288;2023-04-16T10:26:00;19.20;64.00
21092;DHT22;10704;42.678;23.288;2023-04-16T10:28:26;19.50;63.80
21092;DHT22;10704;42.678;23.288;2023-04-16T10:30:55;19.70;63.50
21092;DHT22;10704;42.678;23.288;2023-04-16T10:33:26;20.10;63.00
21092;DHT22;10704;42.678;23.288;2023-04-16T10:36:12;20.40;61.60
21092;DHT22;10704;42.678;23.288;2023-04-16T10:38:40;20.30;61.30
21092;DHT22;10704;42.678;23.288;2023-04-16T10:41:07;20.30;61.60
21092;DHT22;10704;42.678;23.288;2023-04-16T10:43:45;20.70;60.20
21092;DHT22;10704;42.678;23.288;2023-04-16T10:48:57;19.90;61.70
21092;DHT22;10704;42.678;23.288;2023-04-16T10:51:30;19.90;62.10
21092;DHT22;10704;42.678;23.288;2023-04-16T10:56:51;20.30;61.40
21092;DHT22;10704;42.678;23.288;2023-04-16T10:59:19;20.80;60.70
21092;DHT22;10704;42.678;23.288;2023-04-16T11:01:48;21.20;59.70
21092;DHT22;10704;42.678;23.288;2023-04-16T11:12:22;21.70;59.10
21092;DHT22;10704;42.678;23.288;2023-04-16T11:15:00;22.70;56.80
21092;DHT22;10704;42.678;23.288;2023-04-16T11:17:56;23.20;55.90
21092;DHT22;10704;42.678;23.288;2023-04-16T11:20:23;23.70;54.80
21092;DHT22;10704;42.678;23.288;2023-04-16T11:22:54;23.30;54.20
21092;DHT22;10704;42.678;23.288;2023-04-16T11:25:24;22.80;54.60
21092;DHT22;10704;42.678;23.288;2023-04-16T11:27:51;22.40;55.20
21092;DHT22;10704;42.678;23.288;2023-04-16T11:30:17;21.70;56.30
21092;DHT22;10704;42.678;23.288;2023-04-16T11:32:45;21.10;57.40
21092;DHT22;10704;42.678;23.288;2023-04-16T11:35:16;20.80;57.70
21092;DHT22;10704;42.678;23.288;2023-04-16T11:37:43;20.80;58.30
21092;DHT22;10704;42.678;23.288;2023-04-16T11:40:09;20.70;58.40
21092;DHT22;10704;42.678;23.288;2023-04-16T11:42:39;20.60;59.10
21092;DHT22;10704;42.678;23.288;2023-04-16T11:45:07;20.60;59.50
21092;DHT22;10704;42.678;23.288;2023-04-16T11:47:51;20.40;59.80
21092;DHT22;10704;42.678;23.288;2023-04-16T11:50:23;19.80;60.00
21092;DHT22;10704;42.678;23.288;2023-04-16T11:52:51;19.60;60.40
21092;DHT22;10704;42.678;23.288;2023-04-16T11:55:17;19.30;61.80
21092;DHT22;10704;42.678;23.288;2023-04-16T11:57:43;18.90;62.80
21092;DHT22;10704;42.678;23.288;2023-04-16T12:00:11;19.00;62.70
21092;DHT22;10704;42.678;23.288;2023-04-16T12:02:48;18.70;63.60
21092;DHT22;10704;42.678;23.288;2023-04-16T12:05:34;19.10;64.00
21092;DHT22;10704;42.678;23.288;2023-04-16T12:10:31;20.30;61.60
21092;DHT22;10704;42.678;23.288;2023-04-16T12:13:15;20.50;60.90
21092;DHT22;10704;42.678;23.288;2023-04-16T12:15:49;20.50;60.00
21092;DHT22;10704;42.678;23.288;2023-04-16T12:18:16;20.90;59.00
21092;DHT22;10704;42.678;23.288;2023-04-16T12:20:43;21.10;58.40
21092;DHT22;10704;42.678;23.288;2023-04-16T12:23:31;21.10;58.70
21092;DHT22;10704;42.678;23.288;2023-04-16T12:25:58;21.50;57.90
21092;DHT22;10704;42.678;23.288;2023-04-16T12:28:35;21.40;57.60
21092;DHT22;10704;42.678;23.288;2023-04-16T12:31:06;21.20;57.90
21092;DHT22;10704;42.678;23.288;2023-04-16T12:33:32;20.60;58.60
21092;DHT22;10704;42.678;23.288;2023-04-16T12:35:58;20.20;59.80
21092;DHT22;10704;42.678;23.288;2023-04-16T12:38:24;19.40;61.00
21092;DHT22;10704;42.678;23.288;2023-04-16T12:40:51;19.30;62.20
21092;DHT22;10704;42.678;23.288;2023-04-16T12:43:17;19.30;62.30
21092;DHT22;10704;42.678;23.288;2023-04-16T12:45:44;19.20;62.80
21092;DHT22;10704;42.678;23.288;2023-04-16T12:48:10;18.80;64.20
21092;DHT22;10704;42.678;23.288;2023-04-16T12:50:36;18.50;65.50
21092;DHT22;10704;42.678;23.288;2023-04-16T12:53:04;18.10;67.00
21092;DHT22;10704;42.678;23.288;2023-04-16T12:55:30;17.80;68.20
21092;DHT22;10704;42.678;23.288;2023-04-16T12:57:56;17.70;69.20
21092;DHT22;10704;42.678;23.288;2023-04-16T13:00:21;17.50;70.10
21092;DHT22;10704;42.678;23.288;2023-04-16T13:02:47;17.40;69.80
21092;DHT22;10704;42.678;23.288;2023-04-16T13:05:13;17.40;70.40
21092;DHT22;10704;42.678;23.288;2023-04-16T13:07:41;17.50;70.00
21092;DHT22;10704;42.678;23.288;2023-04-16T13:10:08;17.30;70.60
21092;DHT22;10704;42.678;23.288;2023-04-16T13:12:34;17.20;70.80
21092;DHT22;10704;42.678;23.288;2023-04-16T13:14:59;17.00;71.60
21092;DHT22;10704;42.678;23.288;2023-04-16T13:17:25;16.90;72.40
21092;DHT22;10704;42.678;23.288;2023-04-16T13:19:51;16.70;74.00
21092;DHT22;10704;42.678;23.288;2023-04-16T13:22:17;16.20;77.00
21092;DHT22;10704;42.678;23.288;2023-04-16T13:24:43;15.70;81.60
21092;DHT22;10704;42.678;23.288;2023-04-16T13:27:09;15.50;85.30
21092;DHT22;10704;42.678;23.288;2023-04-16T13:29:35;15.40;90.10
21092;DHT22;10704;42.678;23.288;2023-04-16T13:32:02;15.30;93.70
21092;DHT22;10704;42.678;23.288;2023-04-16T13:34:28;15.00;99.90
21092;DHT22;10704;42.678;23.288;2023-04-16T13:36:54;14.90;99.90
21092;DHT22;10704;42.678;23.288;2023-04-16T13:39:20;14.70;99.90
21092;DHT22;10704;42.678;23.288;2023-04-16T13:41:46;14.80;99.90
21092;DHT22;10704;42.678;23.288;2023-04-16T13:44:13;14.60;99.90
21092;DHT22;10704;42.678;23.288;2023-04-16T13:46:39;14.30;99.90
21092;DHT22;10704;42.678;23.288;2023-04-16T13:49:08;14.20;99.90
21092;DHT22;10704;42.678;23.288;2023-04-16T13:51:34;14.10;99.90
21092;DHT22;10704;42.678;23.288;2023-04-16T13:53:59;13.90;99.90
21092;DHT22;10704;42.678;23.288;2023-04-16T13:56:25;13.80;99.90
21092;DHT22;10704;42.678;23.288;2023-04-16T13:58:51;13.70;99.90
21092;DHT22;10704;42.678;23.288;2023-04-16T14:01:17;13.60;99.90
21092;DHT22;10704;42.678;23.288;2023-04-16T14:03:43;13.50;99.90
21092;DHT22;10704;42.678;23.288;2023-04-16T14:06:09;13.30;99.90
21092;DHT22;10704;42.678;23.288;2023-04-16T14:08:35;13.20;99.90
21092;DHT22;10704;42.678;23.288;2023-04-16T14:11:02;13.20;99.90
21092;DHT22;10704;42.678;23.288;2023-04-16T14:13:30;13.20;99.90
21092;DHT22;10704;42.678;23.288;2023-04-16T14:15:56;13.10;99.90
21092;DHT22;10704;42.678;23.288;2023-04-16T14:18:22;13.10;99.90
21092;DHT22;10704;42.678;23.288;2023-04-16T14:20:47;13.10;99.90
21092;DHT22;10704;42.678;23.288;2023-04-16T14:23:13;13.10;99.90
21092;DHT22;10704;42.678;23.288;2023-04-16T14:25:39;13.20;99.90
21092;DHT22;10704;42.678;23.288;2023-04-16T14:28:05;13.20;99.90
21092;DHT22;10704;42.678;23.288;2023-04-16T14:30:31;13.40;99.90
21092;DHT22;10704;42.678;23.288;2023-04-16T14:32:57;13.60;99.90
21092;DHT22;10704;42.678;23.288;2023-04-16T14:35:23;13.60;99.90
21092;DHT22;10704;42.678;23.288;2023-04-16T14:37:49;13.70;99.90
21092;DHT22;10704;42.678;23.288;2023-04-16T14:40:16;13.70;99.90
21092;DHT22;10704;42.678;23.288;2023-04-16T14:42:42;13.70;99.90
21092;DHT22;10704;42.678;23.288;2023-04-16T14:45:08;13.70;99.90
21092;DHT22;10704;42.678;23.288;2023-04-16T14:47:35;13.70;99.90
21092;DHT22;10704;42.678;23.288;2023-04-16T14:50:02;13.70;99.90
21092;DHT22;10704;42.678;23.288;2023-04-16T14:52:30;13.70;99.90
21092;DHT22;10704;42.678;23.288;2023-04-16T14:54:56;13.70;99.90
21092;DHT22;10704;42.678;23.288;2023-04-16T14:57:22;13.70;99.90
21092;DHT22;10704;42.678;23.288;2023-04-16T14:59:49;13.70;99.90
21092;DHT22;10704;42.678;23.288;2023-04-16T15:02:15;13.80;99.90
21092;DHT22;10704;42.678;23.288;2023-04-16T15:04:41;13.80;99.90
21092;DHT22;10704;42.678;23.288;2023-04-16T15:07:07;13.90;99.90
21092;DHT22;10704;42.678;23.288;2023-04-16T15:09:33;13.90;99.90
21092;DHT22;10704;42.678;23.288;2023-04-16T15:11:59;13.80;99.90
21092;DHT22;10704;42.678;23.288;2023-04-16T15:14:25;13.70;99.90
21092;DHT22;10704;42.678;23.288;2023-04-16T15:16:51;13.70;99.90
21092;DHT22;10704;42.678;23.288;2023-04-16T15:19:17;13.60;99.90
21092;DHT22;10704;42.678;23.288;2023-04-16T15:21:43;13.60;99.90
21092;DHT22;10704;42.678;23.288;2023-04-16T15:24:10;13.60;99.90
21092;DHT22;10704;42.678;23.288;2023-04-16T15:26:36;13.40;99.90
21092;DHT22;10704;42.678;23.288;2023-04-16T15:29:03;13.40;99.90
21092;DHT22;10704;42.678;23.288;2023-04-16T15:34:13;13.30;99.90
21092;DHT22;10704;42.678;23.288;2023-04-16T15:36:39;13.30;99.90
21092;DHT22;10704;42.678;23.288;2023-04-16T15:39:06;13.30;99.90
21092;DHT22;10704;42.678;23.288;2023-04-16T15:41:32;13.30;99.90